createdAt,value
2022-09-11T00:00:41.934Z,4.07
2022-09-11T00:05:44.407Z,1.50
2022-09-11T00:10:48.270Z,1.55
2022-09-11T00:15:51.470Z,1.88
2022-09-11T00:20:54.573Z,2.15
2022-09-11T00:25:56.209Z,1.25
2022-09-11T00:31:00.783Z,2.28
2022-09-11T00:36:07.814Z,2.63
2022-09-11T00:41:19.785Z,1.60
2022-09-11T00:46:31.400Z,1.33
2022-09-11T00:51:37.807Z,2.38
2022-09-11T00:56:41.876Z,2.17
2022-09-11T01:01:43.576Z,1.58
2022-09-11T01:06:46.694Z,2.55
2022-09-11T01:12:19.950Z,4.03
2022-09-11T01:17:33.318Z,1.77
2022-09-11T01:22:44.056Z,1.85
2022-09-11T01:27:52.147Z,1.95
2022-09-11T01:32:59.238Z,2.17
2022-09-11T01:38:05.906Z,1.73
2022-09-11T01:43:13.823Z,2.67
2022-09-11T01:48:20.608Z,1.60
2022-09-11T01:58:29.992Z,1.95
2022-09-11T02:03:41.493Z,1.85
2022-09-11T02:09:03.488Z,1.45
2022-09-11T02:14:36.097Z,1.52
2022-09-11T02:19:39.762Z,2.33
2022-09-11T02:24:42.399Z,1.77
2022-09-11T02:29:44.023Z,1.73
2022-09-11T02:34:47.866Z,1.55
2022-09-11T02:39:52.720Z,2.28
2022-09-11T02:45:04.022Z,3.38
2022-09-11T02:50:26.065Z,2.00
2022-09-11T02:56:00.715Z,3.00
2022-09-11T03:01:05.244Z,1.98
2022-09-11T03:06:13.831Z,2.65
2022-09-11T03:11:17.668Z,3.05
2022-09-11T03:16:21.212Z,2.35
2022-09-11T03:21:24.920Z,2.53
2022-09-11T03:26:27.921Z,4.78
2022-09-11T03:31:29.637Z,3.60
2022-09-11T03:36:32.472Z,4.07
2022-09-11T03:41:34.202Z,3.50
2022-09-11T03:46:36.148Z,2.80
2022-09-11T03:51:37.957Z,2.78
2022-09-11T03:56:39.795Z,2.95
2022-09-11T04:01:41.552Z,3.03
2022-09-11T04:06:44.018Z,3.42
2022-09-11T04:11:45.713Z,4.10
2022-09-11T04:16:54.427Z,4.05
2022-09-11T04:21:56.359Z,4.15
2022-09-11T04:27:00.952Z,3.63
2022-09-11T04:32:04.369Z,3.90
2022-09-11T04:37:10.236Z,4.40
2022-09-11T04:42:12.705Z,4.75
2022-09-11T04:47:16.136Z,4.35
2022-09-11T04:52:20.355Z,4.75
2022-09-11T04:57:21.963Z,4.55
2022-09-11T05:02:24.318Z,5.70
2022-09-11T05:07:29.390Z,4.93
2022-09-11T05:12:31.945Z,5.75
2022-09-11T05:17:34.377Z,5.88
2022-09-11T05:22:38.127Z,5.05
2022-09-11T05:27:40.263Z,4.60
2022-09-11T05:32:42.121Z,6.30
2022-09-11T05:37:44.084Z,5.75
2022-09-11T05:42:45.917Z,6.00
2022-09-11T05:47:47.701Z,5.57
2022-09-11T05:52:49.521Z,6.43
2022-09-11T05:57:55.001Z,6.50
2022-09-11T06:02:59.029Z,6.60
2022-09-11T06:08:05.091Z,7.75
2022-09-11T06:13:07.946Z,7.50
2022-09-11T06:18:10.808Z,7.30
2022-09-11T06:23:12.935Z,9.20
2022-09-11T06:28:14.789Z,8.75
2022-09-11T06:33:17.240Z,9.50
2022-09-11T06:38:18.943Z,8.68
2022-09-11T06:43:21.465Z,9.23
2022-09-11T06:48:23.299Z,9.48
2022-09-11T06:53:25.362Z,9.88
2022-09-11T06:58:32.593Z,10.05
2022-09-11T07:03:34.557Z,10.55
2022-09-11T07:08:40.245Z,10.60
2022-09-11T07:13:42.065Z,13.02
2022-09-11T07:18:45.822Z,13.10
2022-09-11T07:23:57.025Z,11.60
2022-09-11T07:28:59.501Z,13.55
2022-09-11T07:34:02.864Z,14.88
2022-09-11T07:39:05.853Z,13.10
2022-09-11T07:44:23.425Z,10.20
2022-09-11T07:49:26.788Z,10.27
2022-09-11T07:54:31.207Z,8.55
2022-09-11T07:59:33.402Z,8.60
2022-09-11T08:04:36.426Z,6.32
2022-09-11T08:09:38.276Z,6.05
2022-09-11T08:14:40.125Z,5.13
2022-09-11T08:19:52.009Z,7.10
2022-09-11T08:24:53.884Z,4.50
2022-09-11T08:29:55.809Z,5.63
2022-09-11T08:34:57.697Z,6.00
2022-09-11T08:40:00.864Z,6.47
2022-09-11T08:45:07.249Z,6.43
2022-09-11T08:50:24.083Z,6.40
2022-09-11T08:55:39.498Z,7.55
2022-09-11T09:01:19.300Z,7.43
2022-09-11T09:06:39.947Z,9.73
2022-09-11T09:11:55.703Z,9.82
2022-09-11T09:17:04.763Z,9.63
2022-09-11T09:22:26.021Z,14.35
2022-09-11T09:27:37.035Z,16.98
2022-09-11T09:32:48.757Z,17.52
2022-09-11T09:37:50.571Z,16.70
2022-09-11T09:42:58.618Z,19.67
2022-09-11T09:48:01.372Z,19.67
2022-09-11T09:53:11.656Z,21.98
2022-09-11T09:58:14.745Z,23.92
2022-09-11T10:03:24.842Z,23.75
2022-09-11T10:08:37.970Z,18.88
2022-09-11T10:13:52.803Z,16.73
2022-09-11T10:18:56.006Z,16.17
2022-09-11T10:24:03.341Z,15.95
2022-09-11T10:29:13.563Z,18.05
2022-09-11T10:34:19.189Z,17.45
2022-09-11T10:39:23.231Z,16.88
2022-09-11T10:44:27.594Z,17.83
2022-09-11T10:49:35.367Z,17.33
2022-09-11T10:55:15.259Z,18.83
2022-09-11T11:00:27.866Z,16.15
2022-09-11T11:05:46.679Z,15.75
2022-09-11T11:11:12.743Z,13.82
2022-09-11T11:16:27.355Z,13.07
2022-09-11T11:21:30.022Z,12.32
2022-09-11T11:26:50.206Z,13.57
2022-09-11T11:32:19.837Z,15.68
2022-09-11T11:37:28.232Z,16.38
2022-09-11T11:42:35.639Z,16.13
2022-09-11T11:47:42.565Z,16.20
2022-09-11T11:53:01.798Z,15.15
2022-09-11T11:58:04.604Z,16.88
2022-09-11T12:03:44.486Z,15.38
2022-09-11T12:08:47.171Z,15.85
2022-09-11T12:13:48.807Z,15.80
2022-09-11T12:19:14.512Z,16.70
2022-09-11T12:24:19.826Z,16.65
2022-09-11T12:29:42.459Z,16.63
2022-09-11T12:34:44.411Z,13.50
2022-09-11T12:39:51.555Z,14.68
2022-09-11T12:44:54.274Z,13.95
2022-09-11T12:50:21.276Z,14.77
2022-09-11T12:55:35.364Z,15.25
2022-09-11T13:00:40.735Z,16.58
2022-09-11T13:05:45.581Z,14.07
2022-09-11T13:10:47.169Z,15.20
2022-09-11T13:15:58.011Z,13.15
2022-09-11T13:21:24.349Z,11.48
2022-09-11T13:26:32.803Z,9.68
2022-09-11T13:36:39.909Z,7.75
2022-09-11T13:41:44.848Z,6.97
2022-09-11T13:46:52.268Z,6.38
2022-09-11T13:51:54.566Z,7.05
2022-09-11T13:56:56.222Z,6.03
2022-09-11T14:02:02.015Z,6.32
2022-09-11T14:07:03.832Z,6.60
2022-09-11T14:12:05.725Z,6.15
2022-09-11T14:17:11.008Z,4.97
2022-09-11T14:22:24.557Z,5.63
2022-09-11T14:27:35.074Z,4.82
2022-09-11T14:32:39.139Z,5.47
2022-09-11T14:37:45.866Z,4.80
2022-09-11T14:42:48.284Z,4.60
2022-09-11T14:47:50.321Z,5.03
2022-09-11T14:52:52.029Z,4.68
2022-09-11T14:57:53.635Z,4.63
2022-09-11T15:02:55.352Z,4.43
2022-09-11T15:08:00.273Z,4.88
2022-09-11T15:13:03.035Z,4.85
2022-09-11T15:18:06.788Z,4.40
2022-09-11T15:23:08.592Z,4.50
2022-09-11T15:28:10.255Z,4.97
2022-09-11T15:33:12.001Z,4.97
2022-09-11T15:38:13.859Z,3.85
2022-09-11T15:43:15.417Z,4.53
2022-09-11T15:48:17.563Z,4.60
2022-09-11T15:53:19.161Z,4.55
2022-09-11T15:58:20.770Z,5.55
2022-09-11T16:03:22.329Z,4.80
2022-09-11T16:08:24.597Z,5.30
2022-09-11T16:13:26.160Z,5.40
2022-09-11T16:18:27.773Z,5.53
2022-09-11T16:23:30.400Z,4.60
2022-09-11T16:28:37.092Z,5.32
2022-09-11T16:33:44.329Z,7.00
2022-09-11T16:38:47.923Z,7.40
2022-09-11T16:43:52.392Z,6.45
2022-09-11T16:48:59.791Z,6.07
2022-09-11T16:54:04.313Z,5.68
2022-09-11T16:59:06.562Z,6.60
2022-09-11T17:04:08.158Z,5.80
2022-09-11T17:09:09.739Z,6.18
2022-09-11T17:14:11.782Z,6.32
2022-09-11T17:19:13.333Z,6.25
2022-09-11T17:24:17.971Z,6.00
2022-09-11T17:29:19.782Z,6.97
2022-09-11T17:34:21.570Z,6.93
2022-09-11T17:39:23.279Z,6.78
2022-09-11T17:44:24.883Z,6.15
2022-09-11T17:49:26.899Z,6.72
2022-09-11T17:54:28.494Z,8.07
2022-09-11T17:59:30.493Z,6.85
2022-09-11T18:04:32.428Z,7.05
2022-09-11T18:09:34.008Z,7.25
2022-09-11T18:14:40.504Z,7.18
2022-09-11T18:19:42.435Z,7.60
2022-09-11T18:24:44.422Z,7.10
2022-09-11T18:29:46.097Z,8.65
2022-09-11T18:34:48.485Z,8.93
2022-09-11T18:39:50.199Z,7.70
2022-09-11T18:44:51.808Z,7.45
2022-09-11T18:49:53.351Z,6.55
2022-09-11T18:54:54.985Z,7.57
2022-09-11T18:59:56.504Z,7.05
2022-09-11T19:04:58.536Z,7.40
2022-09-11T19:10:01.621Z,7.65
2022-09-11T19:15:03.779Z,8.93
2022-09-11T19:20:09.663Z,7.53
2022-09-11T19:25:11.269Z,9.23
2022-09-11T19:30:13.781Z,6.82
2022-09-11T19:35:15.369Z,6.97
2022-09-11T19:40:17.152Z,7.30
2022-09-11T19:45:18.654Z,8.23
2022-09-11T19:50:21.961Z,8.35
2022-09-11T19:55:23.592Z,8.40
2022-09-11T20:00:25.348Z,8.80
2022-09-11T20:05:27.099Z,8.07
2022-09-11T20:10:29.748Z,7.43
2022-09-11T20:15:31.316Z,8.38
2022-09-11T20:20:33.171Z,8.18
2022-09-11T20:25:34.738Z,8.25
2022-09-11T20:30:36.990Z,7.30
2022-09-11T20:35:38.982Z,7.80
2022-09-11T20:40:42.715Z,8.48
2022-09-11T20:45:44.322Z,8.15
2022-09-11T20:50:45.949Z,8.57
2022-09-11T20:55:48.075Z,8.10
2022-09-11T21:00:49.646Z,8.35
2022-09-11T21:05:51.922Z,9.00
2022-09-11T21:10:53.495Z,9.00
2022-09-11T21:15:55.155Z,8.82
2022-09-11T21:20:57.171Z,8.77
2022-09-11T21:25:58.800Z,8.98
2022-09-11T21:31:00.447Z,9.63
2022-09-11T21:36:02.433Z,9.32
2022-09-11T21:41:06.645Z,10.00
2022-09-11T21:46:09.071Z,10.07
2022-09-11T21:51:15.840Z,13.48
2022-09-11T21:56:24.917Z,10.50
2022-09-11T22:01:28.209Z,9.70
2022-09-11T22:06:31.156Z,11.30
2022-09-11T22:11:32.713Z,10.93
2022-09-11T22:16:34.282Z,10.73
2022-09-11T22:21:35.882Z,10.55
2022-09-11T22:26:37.699Z,10.13
2022-09-11T22:31:39.809Z,9.75
2022-09-11T22:36:41.401Z,11.00
2022-09-11T22:41:43.167Z,10.75
2022-09-11T22:46:48.679Z,9.80
2022-09-11T22:51:50.501Z,10.68
2022-09-11T22:56:52.030Z,10.60
2022-09-11T23:01:53.618Z,11.45
2022-09-11T23:07:13.620Z,11.75
2022-09-11T23:12:15.212Z,12.70
2022-09-11T23:17:16.817Z,14.57
2022-09-11T23:22:18.291Z,13.38
2022-09-11T23:27:20.210Z,13.65
2022-09-11T23:32:21.781Z,15.13
2022-09-11T23:37:23.492Z,14.25
2022-09-11T23:42:25.218Z,16.42
2022-09-11T23:47:26.798Z,16.58
2022-09-11T23:52:28.882Z,16.42
2022-09-11T23:57:30.466Z,16.95
